Time;durP1;ratioP1;P1;durP2;ratioP2;P2;SDS_P1;SDS_P2;PMS_P1;PMS_P2;Temp;Humidity;BMP_temperature;BMP_pressure;BME280_temperature;BME280_humidity;BME280_pressure;Samples;Min_cycle;Max_cycle;Signal;HPM_P1;HPM_P2
2021/05/30 00:00:26;;;;;;;2.20;1.38;;;;;;;20.42;55.76;101664.19;5052303;28;20118;-62
2021/05/30 00:02:53;;;;;;;2.05;1.20;;;;;;;20.38;55.22;101667.13;5052023;28;20119;-63
2021/05/30 00:05:20;;;;;;;1.90;1.08;;;;;;;20.34;55.10;101671.03;5047705;28;20060;-63
2021/05/30 00:07:46;;;;;;;2.97;1.40;;;;;;;20.32;54.49;101672.97;5032083;28;20100;-63
2021/05/30 00:10:14;;;;;;;2.28;1.33;;;;;;;20.30;54.52;101672.25;5032025;28;20060;-63
2021/05/30 00:12:46;;;;;;;1.30;1.00;;;;;;;20.28;54.41;101676.84;5032010;28;20052;-63
2021/05/30 00:15:13;;;;;;;1.80;1.10;;;;;;;20.25;53.91;101671.75;5032040;28;20048;-63
2021/05/30 00:17:40;;;;;;;1.38;1.10;;;;;;;20.25;54.11;101681.59;5031978;28;20050;-62
2021/05/30 00:20:09;;;;;;;1.23;1.10;;;;;;;20.20;53.73;101672.16;5032188;28;20045;-63
2021/05/30 00:22:36;;;;;;;1.40;0.90;;;;;;;20.17;53.20;101680.41;5032073;28;20042;-63
2021/05/30 00:25:04;;;;;;;2.28;1.02;;;;;;;20.14;52.93;101674.50;5031585;28;20123;-63
2021/05/30 00:27:32;;;;;;;1.65;1.10;;;;;;;20.10;52.76;101673.91;5032114;28;20103;-63
2021/05/30 00:30:01;;;;;;;1.85;0.65;;;;;;;20.06;52.61;101673.31;5031808;28;20053;-63
2021/05/30 00:32:28;;;;;;;3.30;1.25;;;;;;;20.04;52.55;101675.25;5031807;28;20045;-62
2021/05/30 00:34:55;;;;;;;2.15;1.00;;;;;;;20.04;52.61;101680.56;5031786;28;20454;-63
2021/05/30 00:37:22;;;;;;;1.70;1.02;;;;;;;20.00;52.17;101679.13;5031929;28;20439;-63
2021/05/30 00:39:48;;;;;;;1.55;1.00;;;;;;;19.99;52.30;101677.44;5031001;28;20049;-63
2021/05/30 00:42:15;;;;;;;1.63;0.85;;;;;;;19.97;52.18;101683.88;5031998;28;20411;-63
2021/05/30 00:44:42;;;;;;;1.58;0.80;;;;;;;19.95;52.19;101681.34;5031673;28;20045;-62
2021/05/30 00:47:09;;;;;;;1.45;1.00;;;;;;;19.95;51.90;101681.34;5031755;28;20049;-63
2021/05/30 00:49:36;;;;;;;2.92;1.00;;;;;;;19.95;51.99;101686.66;5035186;28;20065;-63
2021/05/30 00:52:05;;;;;;;1.90;0.93;;;;;;;19.93;51.95;101688.59;5035212;28;20053;-63
2021/05/30 00:54:35;;;;;;;1.20;1.08;;;;;;;19.94;51.83;101692.97;5035360;28;20049;-62
2021/05/30 00:57:05;;;;;;;1.40;0.90;;;;;;;19.92;51.74;101684.22;5035187;28;20045;-63
2021/05/30 00:59:32;;;;;;;3.72;1.15;;;;;;;19.93;51.45;101693.09;5035187;28;20071;-62
2021/05/30 01:01:58;;;;;;;1.00;0.88;;;;;;;19.90;51.76;101697.69;5035219;28;20068;-62
2021/05/30 01:04:25;;;;;;;0.73;0.73;;;;;;;19.88;51.79;101691.66;5035334;28;20041;-63
2021/05/30 01:06:55;;;;;;;1.05;0.80;;;;;;;19.88;51.67;101689.00;5035068;28;20045;-63
2021/05/30 01:09:25;;;;;;;0.90;0.80;;;;;;;19.88;51.53;101696.13;5035131;28;20057;-63
2021/05/30 01:11:53;;;;;;;1.17;1.02;;;;;;;19.85;51.42;101697.22;5034894;28;20053;-62
2021/05/30 01:14:19;;;;;;;1.85;0.80;;;;;;;19.84;51.35;101692.00;5035029;28;20045;-62
2021/05/30 01:16:47;;;;;;;2.60;0.88;;;;;;;19.83;51.22;101693.84;5034886;28;20075;-62
2021/05/30 01:19:16;;;;;;;2.47;0.82;;;;;;;19.82;51.23;101696.56;5034769;28;20103;-63
2021/05/30 01:21:44;;;;;;;1.30;0.90;;;;;;;19.81;51.16;101697.56;5034838;28;20045;-63
2021/05/30 01:24:13;;;;;;;1.80;0.98;;;;;;;19.79;51.04;101697.66;5034641;28;20053;-63
2021/05/30 01:26:41;;;;;;;1.60;1.15;;;;;;;19.79;50.69;101696.84;5034687;28;20099;-63
2021/05/30 01:29:08;;;;;;;1.08;0.85;;;;;;;19.77;50.89;101704.97;5034919;28;20117;-62
2021/05/30 01:31:35;;;;;;;1.58;1.10;;;;;;;19.78;50.61;101703.97;5034702;28;20503;-62
2021/05/30 01:34:02;;;;;;;1.23;1.00;;;;;;;19.78;50.88;101706.63;5049799;28;20064;-62
2021/05/30 01:36:29;;;;;;;2.33;1.00;;;;;;;19.76;50.25;101703.25;5034652;28;20097;-63
2021/05/30 01:38:55;;;;;;;1.25;1.05;;;;;;;19.75;50.20;101709.56;5034492;28;20086;-63
2021/05/30 01:41:22;;;;;;;1.35;1.10;;;;;;;19.74;50.05;101703.38;5034382;28;20049;-63
2021/05/30 01:43:49;;;;;;;2.60;0.93;;;;;;;19.73;50.32;101699.03;5034360;28;20431;-63
2021/05/30 01:46:15;;;;;;;2.70;1.70;;;;;;;19.75;50.11;101701.56;5034538;28;20045;-63
2021/05/30 01:48:43;;;;;;;1.33;1.08;;;;;;;19.74;50.00;101695.41;5034406;28;20385;-63
2021/05/30 01:51:10;;;;;;;2.47;1.05;;;;;;;19.73;49.62;101699.03;5034181;28;20049;-63
2021/05/30 01:53:42;;;;;;;1.60;1.02;;;;;;;19.73;49.53;101698.16;5034258;28;20435;-63
2021/05/30 01:58:39;;;;;;;1.20;0.95;;;;;;;19.73;49.33;101700.81;5034099;28;20051;-63
2021/05/30 02:01:09;;;;;;;1.73;0.88;;;;;;;19.72;49.27;101702.66;5033608;28;20060;-62
2021/05/30 02:03:36;;;;;;;1.33;0.85;;;;;;;19.72;49.18;101699.16;5034140;28;20095;-62
2021/05/30 02:06:03;;;;;;;1.42;0.85;;;;;;;19.69;48.84;101689.59;5033841;28;20446;-63
2021/05/30 02:08:31;;;;;;;1.55;0.80;;;;;;;19.69;48.89;101696.72;5033965;28;20051;-62
2021/05/30 02:10:58;;;;;;;1.05;0.95;;;;;;;19.68;49.16;101697.69;5033730;28;20064;-63
2021/05/30 02:13:27;;;;;;;1.48;0.80;;;;;;;19.68;48.72;101695.03;5033989;28;20049;-63
2021/05/30 02:15:54;;;;;;;1.23;1.00;;;;;;;19.65;48.96;101703.28;5033943;28;20045;-62
2021/05/30 02:18:20;;;;;;;2.33;0.90;;;;;;;19.64;49.11;101707.75;5033910;28;20045;-75
2021/05/30 02:20:47;;;;;;;1.30;0.80;;;;;;;19.62;48.67;101711.50;5033704;28;20045;-62
2021/05/30 02:23:15;;;;;;;1.45;1.15;;;;;;;19.61;48.73;101701.84;5033830;28;20088;-63
2021/05/30 02:25:42;;;;;;;2.45;0.95;;;;;;;19.58;48.71;101698.44;5033280;28;20061;-63
2021/05/30 02:28:09;;;;;;;2.20;0.95;;;;;;;19.57;48.91;101698.56;5033557;28;20041;-74
2021/05/30 02:30:35;;;;;;;1.42;0.98;;;;;;;19.54;48.73;101701.44;5033597;28;20454;-63
2021/05/30 02:33:03;;;;;;;1.88;0.75;;;;;;;19.53;48.79;101697.13;5033525;28;20049;-62
2021/05/30 02:35:30;;;;;;;2.13;0.90;;;;;;;19.51;48.31;101694.56;5033521;28;20506;-63
2021/05/30 02:37:57;;;;;;;0.70;0.70;;;;;;;19.50;48.18;101694.69;5033316;28;20046;-62
2021/05/30 02:40:24;;;;;;;1.27;1.00;;;;;;;19.48;48.08;101694.81;5033454;28;20049;-62
2021/05/30 02:42:51;;;;;;;2.33;0.70;;;;;;;19.46;48.22;101687.91;5033267;28;20061;-62
2021/05/30 02:45:17;;;;;;;0.80;0.70;;;;;;;19.42;48.37;101692.63;5033174;28;20041;-63
2021/05/30 02:47:45;;;;;;;1.30;0.85;;;;;;;19.39;48.24;101691.06;5033052;28;20483;-62
2021/05/30 02:50:12;;;;;;;1.52;0.80;;;;;;;19.39;47.85;101696.38;5033250;28;20045;-62
2021/05/30 02:52:40;;;;;;;4.15;0.98;;;;;;;19.36;47.75;101685.13;5033046;28;20091;-62
2021/05/30 02:55:08;;;;;;;1.27;0.80;;;;;;;19.33;47.95;101678.25;5033229;28;20041;-62
2021/05/30 02:57:35;;;;;;;0.57;0.52;;;;;;;19.31;47.88;101674.88;5033062;28;20047;-63
2021/05/30 03:00:03;;;;;;;1.52;0.93;;;;;;;19.30;47.59;101680.28;5032970;28;20049;-62
2021/05/30 03:02:30;;;;;;;2.22;0.90;;;;;;;19.28;47.55;101687.56;5034835;28;20045;-62
2021/05/30 03:04:57;;;;;;;1.02;0.70;;;;;;;19.25;47.37;101680.69;5049352;28;20045;-62
2021/05/30 03:07:23;;;;;;;0.80;0.80;;;;;;;19.23;47.49;101686.09;5047598;28;20052;-62
2021/05/30 03:09:50;;;;;;;1.73;0.80;;;;;;;19.20;47.77;101681.03;5049585;28;20045;-62
2021/05/30 03:12:17;;;;;;;1.27;0.90;;;;;;;19.19;47.55;101683.81;5049152;28;20049;-63
2021/05/30 03:14:43;;;;;;;2.47;0.95;;;;;;;19.19;47.34;101686.47;5049591;28;20442;-62
2021/05/30 03:17:10;;;;;;;1.05;0.70;;;;;;;19.18;47.57;101682.13;5049544;28;20094;-62
2021/05/30 03:19:37;;;;;;;0.95;0.88;;;;;;;19.17;47.28;101689.25;5049205;28;20045;-63
2021/05/30 03:22:04;;;;;;;3.78;1.00;;;;;;;19.16;47.09;101686.69;5049059;28;20045;-62
2021/05/30 03:24:31;;;;;;;1.85;0.80;;;;;;;19.15;47.21;101693.00;5048201;28;20045;-62
2021/05/30 03:26:58;;;;;;;2.28;1.10;;;;;;;19.12;47.00;101678.09;5049445;28;20049;-63
2021/05/30 03:29:24;;;;;;;2.10;1.20;;;;;;;19.10;47.39;101680.06;5049373;28;20186;-62
2021/05/30 03:31:51;;;;;;;2.90;1.20;;;;;;;19.07;47.38;101675.81;5048959;28;20403;-63
2021/05/30 03:34:18;;;;;;;0.73;0.73;;;;;;;19.06;47.19;101683.94;5049373;28;20470;-63
2021/05/30 03:36:48;;;;;;;1.00;0.88;;;;;;;19.03;47.13;101694.78;5049284;28;20095;-62
2021/05/30 03:39:15;;;;;;;1.55;1.30;;;;;;;19.01;47.45;101689.59;5049242;28;20091;-63
2021/05/30 03:41:42;;;;;;;3.05;1.25;;;;;;;19.00;47.01;101695.03;5048854;28;20095;-63
2021/05/30 03:44:10;;;;;;;2.50;1.10;;;;;;;18.99;47.30;101690.69;5048999;28;20044;-70
2021/05/30 03:46:37;;;;;;;1.27;1.00;;;;;;;18.98;47.03;101688.97;5049179;28;20102;-63
2021/05/30 03:49:07;;;;;;;2.42;1.13;;;;;;;18.97;46.83;101690.81;5046000;28;20159;-63
2021/05/30 03:51:34;;;;;;;1.35;1.02;;;;;;;18.95;47.33;101690.06;5048656;28;20049;-63
2021/05/30 03:54:00;;;;;;;2.17;1.20;;;;;;;18.94;47.27;101699.00;5048736;28;20075;-62
2021/05/30 03:56:28;;;;;;;3.15;1.40;;;;;;;18.94;47.04;101699.00;5048779;28;20045;-63
2021/05/30 03:58:56;;;;;;;1.25;0.90;;;;;;;18.92;46.91;101692.97;5048703;28;20095;-63
2021/05/30 04:01:23;;;;;;;1.80;0.95;;;;;;;18.92;46.77;101695.63;5048850;28;20049;-63
2021/05/30 04:03:50;;;;;;;1.10;0.90;;;;;;;18.90;46.62;101698.38;5048723;28;20110;-63
2021/05/30 04:06:17;;;;;;;1.08;0.98;;;;;;;18.90;46.28;101697.56;5047909;28;20056;-72
2021/05/30 04:08:46;;;;;;;3.85;0.98;;;;;;;18.91;46.81;101699.25;5048827;28;20044;-63
2021/05/30 04:11:14;;;;;;;3.55;1.00;;;;;;;18.90;46.47;101697.56;5048572;28;20049;-62
2021/05/30 04:13:41;;;;;;;3.55;1.38;;;;;;;18.89;46.96;101699.34;5048691;28;20475;-62
2021/05/30 04:16:08;;;;;;;6.05;1.30;;;;;;;18.90;46.69;101700.22;5048699;28;20055;-62
2021/05/30 04:18:36;;;;;;;2.03;0.77;;;;;;;18.91;46.43;101699.25;5048865;28;20044;-62
2021/05/30 04:21:04;;;;;;;4.50;1.00;;;;;;;18.89;46.41;101694.03;5048612;28;20107;-62
2021/05/30 04:23:31;;;;;;;1.42;0.90;;;;;;;18.90;46.35;101697.56;5040904;28;20045;-62
2021/05/30 04:25:58;;;;;;;2.00;0.90;;;;;;;18.88;46.11;101691.47;5032385;28;20054;-62
2021/05/30 04:28:25;;;;;;;2.63;1.00;;;;;;;18.88;45.70;101699.44;5032560;28;20050;-62
2021/05/30 04:30:51;;;;;;;1.55;1.00;;;;;;;18.88;45.73;101695.00;5032543;28;20045;-62
2021/05/30 04:33:18;;;;;;;3.67;0.90;;;;;;;18.90;46.01;101694.91;5032412;28;20053;-63
2021/05/30 04:35:45;;;;;;;0.80;0.80;;;;;;;18.91;45.74;101697.44;5032340;28;20419;-63
2021/05/30 04:38:11;;;;;;;1.48;0.82;;;;;;;18.94;45.98;101699.00;5032561;28;20052;-64
2021/05/30 04:40:38;;;;;;;2.60;0.77;;;;;;;18.96;45.88;101693.56;5032424;28;20050;-64
2021/05/30 04:43:05;;;;;;;1.83;1.02;;;;;;;18.96;45.87;101693.56;5032469;28;20067;-63
2021/05/30 04:45:32;;;;;;;1.98;0.80;;;;;;;18.98;45.35;101696.97;5031982;28;20053;-62
2021/05/30 04:47:58;;;;;;;4.35;0.90;;;;;;;19.01;45.40;101696.75;5032056;28;20045;-63
2021/05/30 04:50:25;;;;;;;1.95;1.00;;;;;;;19.00;45.25;101687.06;5032189;28;20049;-62
2021/05/30 04:52:52;;;;;;;1.67;0.88;;;;;;;19.02;45.13;101690.44;5031886;28;20388;-63
2021/05/30 04:55:19;;;;;;;1.65;1.05;;;;;;;19.03;45.04;101693.00;5032202;28;20076;-64
2021/05/30 04:57:45;;;;;;;1.35;1.00;;;;;;;19.06;44.57;101692.75;5032283;28;20055;-63
2021/05/30 05:00:15;;;;;;;1.50;0.80;;;;;;;19.08;44.76;101697.94;5032012;28;20104;-63
2021/05/30 05:02:42;;;;;;;2.60;1.00;;;;;;;19.11;44.62;101697.72;5032002;28;20058;-63
2021/05/30 05:05:12;;;;;;;4.85;1.25;;;;;;;19.13;44.73;101703.75;5031624;28;20053;-64
2021/05/30 05:07:40;;;;;;;1.58;0.90;;;;;;;19.16;44.43;101686.69;5036507;28;20037;-62
2021/05/30 05:10:08;;;;;;;2.72;0.80;;;;;;;19.17;44.01;101697.25;5051863;28;20045;-73
2021/05/30 05:12:35;;;;;;;2.25;0.90;;;;;;;19.19;44.16;101692.63;5051513;28;20044;-63
2021/05/30 05:15:02;;;;;;;2.67;0.80;;;;;;;19.21;44.21;101693.38;5051847;28;20497;-63
2021/05/30 05:17:29;;;;;;;0.82;0.75;;;;;;;19.23;43.62;101696.72;5051615;28;20056;-63
2021/05/30 05:19:56;;;;;;;1.88;0.73;;;;;;;19.25;43.73;101699.31;5052133;28;20432;-63
2021/05/30 05:22:29;;;;;;;0.77;0.60;;;;;;;19.27;43.72;101702.66;5051734;28;20057;-62
2021/05/30 05:25:03;;;;;;;1.45;0.80;;;;;;;19.32;43.75;101700.50;5050416;28;20136;-64
2021/05/30 05:27:30;;;;;;;0.70;0.70;;;;;;;19.35;43.88;101702.94;5051383;28;20063;-62
2021/05/30 05:29:56;;;;;;;0.80;0.75;;;;;;;19.39;43.32;101714.19;5051292;28;20056;-62
2021/05/30 05:32:23;;;;;;;1.52;0.90;;;;;;;19.41;43.20;101699.78;5051431;28;20076;-62
2021/05/30 05:34:50;;;;;;;0.80;0.60;;;;;;;19.45;43.03;101708.34;5050205;28;20049;-62
2021/05/30 05:37:17;;;;;;;1.73;0.80;;;;;;;19.48;43.48;101705.47;5051185;28;20433;-63
2021/05/30 05:39:43;;;;;;;1.00;0.82;;;;;;;19.51;43.34;101704.38;5051012;28;20041;-62
2021/05/30 05:42:10;;;;;;;1.38;0.70;;;;;;;19.53;43.53;101716.59;5051084;28;20049;-63
2021/05/30 05:44:37;;;;;;;1.67;0.80;;;;;;;19.57;43.56;101710.03;5051023;28;20049;-62
2021/05/30 05:47:04;;;;;;;1.50;0.98;;;;;;;19.60;43.09;101708.97;5051147;28;20049;-62
2021/05/30 05:49:33;;;;;;;2.15;0.80;;;;;;;19.64;43.42;101718.41;5051020;28;20077;-63
2021/05/30 05:52:00;;;;;;;1.67;0.60;;;;;;;19.69;43.04;101713.56;5050644;28;20048;-63
2021/05/30 05:54:44;;;;;;;0.60;0.60;;;;;;;19.74;42.86;101718.50;5051026;28;20491;-75
2021/05/30 05:57:10;;;;;;;1.20;0.80;;;;;;;19.78;42.84;101717.28;5050860;28;20045;-62
2021/05/30 05:59:37;;;;;;;2.42;1.38;;;;;;;19.84;42.75;101718.66;5044122;28;20045;-63
2021/05/30 06:02:04;;;;;;;1.05;0.77;;;;;;;19.88;42.37;101712.09;5030753;28;20061;-69
2021/05/30 06:04:30;;;;;;;1.20;0.70;;;;;;;19.93;42.07;101709.91;5030710;28;20519;-62
2021/05/30 06:06:57;;;;;;;0.75;0.60;;;;;;;19.97;42.40;101711.38;5030516;28;20570;-63
2021/05/30 06:09:24;;;;;;;1.27;0.57;;;;;;;20.03;42.01;101716.19;5030827;28;20490;-63
2021/05/30 06:11:50;;;;;;;1.92;0.80;;;;;;;20.08;41.99;101714.97;5030717;28;20043;-63
2021/05/30 06:14:17;;;;;;;1.15;0.60;;;;;;;20.12;42.01;101711.91;5030526;28;20132;-63
2021/05/30 06:16:44;;;;;;;0.55;0.52;;;;;;;20.17;41.92;101712.38;5030398;28;20053;-62
2021/05/30 06:19:10;;;;;;;1.13;0.80;;;;;;;20.21;41.74;101708.50;5030634;28;20447;-63
2021/05/30 06:21:38;;;;;;;1.33;0.80;;;;;;;20.26;41.19;101705.44;5030568;28;20050;-63
2021/05/30 06:24:05;;;;;;;1.88;0.73;;;;;;;20.30;41.04;101706.91;5030682;28;20049;-63
2021/05/30 06:26:32;;;;;;;1.42;0.60;;;;;;;20.34;40.58;101705.69;5030148;28;20053;-63
2021/05/30 06:28:59;;;;;;;1.67;0.70;;;;;;;20.39;40.24;101708.81;5030108;28;20060;-63
2021/05/30 06:31:25;;;;;;;1.55;0.50;;;;;;;20.46;39.53;101702.97;5030235;28;20053;-63
2021/05/30 06:33:52;;;;;;;0.90;0.60;;;;;;;20.52;39.37;101707.78;5030133;28;20053;-63
2021/05/30 06:36:19;;;;;;;1.35;0.60;;;;;;;20.55;39.32;101702.19;5030505;28;20045;-62
2021/05/30 06:38:45;;;;;;;1.08;0.60;;;;;;;20.59;39.10;101703.59;5030035;28;20141;-63
2021/05/30 06:41:12;;;;;;;1.40;0.73;;;;;;;20.63;38.21;101705.06;5030092;28;20505;-64
2021/05/30 06:43:39;;;;;;;0.85;0.55;;;;;;;20.68;37.93;101697.53;5030105;28;20046;-63
2021/05/30 06:46:06;;;;;;;3.55;0.60;;;;;;;20.72;37.70;101700.78;5029451;28;20430;-63
2021/05/30 06:48:32;;;;;;;1.08;0.50;;;;;;;20.75;37.41;101697.88;5029902;28;20145;-63
2021/05/30 06:51:12;;;;;;;1.45;0.60;;;;;;;20.80;37.79;101694.81;5029837;28;20046;-63
2021/05/30 06:53:39;;;;;;;0.73;0.50;;;;;;;20.86;37.73;101696.94;5029828;28;20053;-63
2021/05/30 06:56:06;;;;;;;1.50;0.57;;;;;;;20.93;38.07;101700.78;5029771;28;20056;-62
2021/05/30 06:58:33;;;;;;;1.33;0.60;;;;;;;20.98;38.25;101695.91;5030064;28;20423;-63
2021/05/30 07:00:59;;;;;;;0.85;0.65;;;;;;;21.02;37.90;101699.97;5029637;28;20488;-63
2021/05/30 07:03:26;;;;;;;2.00;0.60;;;;;;;21.09;37.83;101689.66;5029420;28;20049;-65
2021/05/30 07:05:53;;;;;;;0.77;0.68;;;;;;;21.15;37.50;101691.78;5039886;28;20110;-70
2021/05/30 07:08:19;;;;;;;0.40;0.40;;;;;;;21.20;37.73;101694.03;5049098;28;20077;-71
2021/05/30 07:10:46;;;;;;;0.60;0.40;;;;;;;21.26;37.38;101690.00;5048723;28;20049;-69
2021/05/30 07:13:12;;;;;;;0.65;0.50;;;;;;;21.30;37.74;101686.91;5048672;28;20115;-68
2021/05/30 07:15:40;;;;;;;1.55;0.55;;;;;;;21.37;37.42;101689.91;5048391;28;20458;-68
2021/05/30 07:18:07;;;;;;;0.60;0.50;;;;;;;21.42;37.79;101690.34;5048444;28;20073;-67
2021/05/30 07:20:34;;;;;;;1.08;0.70;;;;;;;21.46;37.31;101690.94;5047875;28;20049;-68
2021/05/30 07:23:00;;;;;;;2.97;0.60;;;;;;;21.51;37.04;101688.69;5048419;28;20041;-66
2021/05/30 07:25:29;;;;;;;0.77;0.70;;;;;;;21.56;36.97;101686.50;5048240;28;20045;-73
2021/05/30 07:27:55;;;;;;;0.98;0.52;;;;;;;21.60;37.22;101687.91;5048263;28;20049;-67
2021/05/30 07:30:23;;;;;;;0.63;0.60;;;;;;;21.65;36.99;101683.00;5048824;28;20041;-67
2021/05/30 07:32:50;;;;;;;0.98;0.43;;;;;;;21.72;37.11;101682.44;5048484;28;20084;-65
2021/05/30 07:35:17;;;;;;;0.73;0.63;;;;;;;21.78;36.74;101679.22;5048042;28;20037;-68
2021/05/30 07:37:44;;;;;;;0.50;0.50;;;;;;;21.81;36.78;101679.81;5046245;28;20510;-75
2021/05/30 07:40:11;;;;;;;0.75;0.43;;;;;;;21.88;36.19;101674.75;5049000;28;20099;-67
2021/05/30 07:42:38;;;;;;;0.68;0.50;;;;;;;21.94;36.55;101678.69;5047858;28;20053;-69
2021/05/30 07:45:06;;;;;;;1.30;0.60;;;;;;;21.98;36.30;101680.94;5048137;28;20479;-68
2021/05/30 07:47:33;;;;;;;1.70;0.70;;;;;;;22.05;35.82;101678.56;5046180;28;20056;-70
2021/05/30 07:49:59;;;;;;;0.70;0.50;;;;;;;22.10;35.76;101675.47;5045697;28;20045;-69
2021/05/30 07:52:26;;;;;;;0.77;0.63;;;;;;;22.14;35.48;101674.19;5048818;28;20529;-67
2021/05/30 07:54:53;;;;;;;0.77;0.52;;;;;;;22.17;35.12;101672.09;5047812;28;20063;-67
2021/05/30 07:57:19;;;;;;;1.13;0.40;;;;;;;22.21;34.61;101675.34;5048152;28;20442;-66
2021/05/30 07:59:46;;;;;;;1.50;1.08;;;;;;;22.27;35.22;101672.09;5052657;28;20056;-66
2021/05/30 08:02:13;;;;;;;0.70;0.60;;;;;;;22.37;34.88;101672.09;5052579;28;20049;-67
2021/05/30 08:04:42;;;;;;;1.25;0.80;;;;;;;22.44;34.78;101665.22;5052818;28;20855;-66
2021/05/30 08:07:09;;;;;;;0.88;0.60;;;;;;;22.52;34.85;101664.50;5047749;28;20037;-64
2021/05/30 08:09:36;;;;;;;2.30;0.50;;;;;;;22.60;35.11;101664.63;5032846;28;20163;-64
2021/05/30 08:12:04;;;;;;;0.60;0.50;;;;;;;22.69;34.47;101656.72;5032666;28;20095;-65
2021/05/30 08:14:31;;;;;;;0.43;0.38;;;;;;;22.77;34.33;101663.03;5032997;28;20049;-68
2021/05/30 08:16:58;;;;;;;2.63;0.70;;;;;;;22.86;34.35;101664.00;5052162;28;20041;-74
2021/05/30 08:19:25;;;;;;;0.63;0.63;;;;;;;22.95;33.67;101664.97;5050635;28;20045;-65
2021/05/30 08:21:51;;;;;;;0.82;0.60;;;;;;;23.03;33.29;101666.91;5051794;28;20037;-64
2021/05/30 08:24:18;;;;;;;0.68;0.55;;;;;;;23.12;32.96;101671.38;5051281;28;20045;-65
2021/05/30 08:26:53;;;;;;;0.40;0.40;;;;;;;23.21;33.04;101665.19;5050155;28;20103;-65
2021/05/30 08:29:21;;;;;;;0.90;0.40;;;;;;;23.29;32.83;101662.59;5050446;28;20045;-65
2021/05/30 08:31:49;;;;;;;1.98;1.30;;;;;;;23.37;31.92;101664.53;5050070;28;20042;-64
2021/05/30 08:34:17;;;;;;;2.10;0.63;;;;;;;23.47;31.29;101664.50;5051446;28;20047;-65
2021/05/30 08:36:44;;;;;;;3.72;0.50;;;;;;;23.52;30.65;101661.38;5051444;28;20513;-63
2021/05/30 08:39:11;;;;;;;5.93;2.13;;;;;;;23.53;30.70;101665.72;5051668;28;20045;-68
2021/05/30 08:41:39;;;;;;;4.55;1.85;;;;;;;23.56;32.07;101663.59;5051492;28;20087;-66
2021/05/30 08:44:06;;;;;;;7.28;1.90;;;;;;;23.56;32.47;101657.41;5052118;28;20412;-67
2021/05/30 08:46:33;;;;;;;1.77;0.60;;;;;;;23.60;32.69;101661.44;5052055;28;20048;-65
2021/05/30 08:49:01;;;;;;;6.55;1.52;;;;;;;23.68;31.84;101656.19;5052117;28;20056;-59
2021/05/30 08:51:28;;;;;;;1.27;0.50;;;;;;;23.78;33.29;101656.09;5052088;28;20048;-60
2021/05/30 08:53:55;;;;;;;0.70;0.50;;;;;;;23.92;32.79;101652.09;5051769;28;20132;-65
2021/05/30 08:56:21;;;;;;;0.70;0.50;;;;;;;24.00;31.03;101662.91;5051551;28;20053;-64
2021/05/30 08:58:50;;;;;;;1.83;0.70;;;;;;;23.99;29.46;101652.34;5051626;28;20041;-68
2021/05/30 09:01:22;;;;;;;1.35;0.60;;;;;;;24.03;28.73;101659.91;5034143;28;20049;-64
2021/05/30 09:04:04;;;;;;;0.85;0.50;;;;;;;24.06;28.87;101650.72;5051708;28;20589;-61
2021/05/30 09:06:31;;;;;;;0.70;0.40;;;;;;;24.14;29.00;101656.16;5051599;28;20103;-64
2021/05/30 09:08:58;;;;;;;0.63;0.50;;;;;;;24.25;29.02;101649.72;5050938;28;20052;-64
2021/05/30 09:11:46;;;;;;;0.38;0.30;;;;;;;24.39;28.67;101651.00;5051327;28;20045;-64
2021/05/30 09:14:27;;;;;;;0.88;0.50;;;;;;;24.40;27.97;101650.00;5051560;28;20075;-64
2021/05/30 09:17:00;;;;;;;1.95;0.70;;;;;;;24.49;27.83;101649.06;5048932;28;20411;-64
2021/05/30 09:19:33;;;;;;;0.95;0.60;;;;;;;24.50;28.11;101647.22;5031517;28;20049;-64
2021/05/30 09:22:15;;;;;;;0.52;0.40;;;;;;;24.66;28.37;101638.47;5031474;28;20045;-64
2021/05/30 09:24:57;;;;;;;2.05;0.47;;;;;;;24.84;29.19;101638.44;5031073;28;20057;-65
2021/05/30 09:27:33;;;;;;;1.02;0.50;;;;;;;25.01;28.98;101645.53;5044240;28;20045;-64
2021/05/30 09:30:27;;;;;;;2.65;0.75;;;;;;;25.03;28.33;101645.41;5051568;28;20219;-64
2021/05/30 09:33:03;;;;;;;1.08;0.52;;;;;;;25.06;28.23;101642.38;5033528;28;20049;-64
2021/05/30 09:35:43;;;;;;;1.23;0.52;;;;;;;25.04;27.30;101631.81;5050731;28;20045;-64
2021/05/30 09:38:14;;;;;;;0.63;0.55;;;;;;;25.06;27.41;101637.84;5050927;28;20079;-64
2021/05/30 09:40:47;;;;;;;0.85;0.57;;;;;;;25.14;28.08;101629.00;5051001;28;20087;-64
2021/05/30 09:43:20;;;;;;;0.63;0.50;;;;;;;25.27;28.17;101631.22;5051012;28;20053;-64
2021/05/30 09:46:04;;;;;;;0.75;0.55;;;;;;;25.36;27.67;101632.13;5050576;28;20102;-65
2021/05/30 09:48:32;;;;;;;0.73;0.50;;;;;;;25.39;26.57;101626.41;5049144;28;20045;-63
2021/05/30 09:51:08;;;;;;;0.50;0.50;;;;;;;25.44;26.75;101618.72;5050245;28;20049;-64
2021/05/30 09:53:55;;;;;;;1.25;0.40;;;;;;;25.51;27.15;101624.25;5048141;28;20053;-64
2021/05/30 09:56:40;;;;;;;0.80;0.43;;;;;;;25.59;26.84;101619.75;5050582;28;20127;-64
2021/05/30 09:59:19;;;;;;;0.65;0.50;;;;;;;25.69;26.55;101619.59;5047991;28;20049;-65
2021/05/30 10:01:52;;;;;;;0.50;0.40;;;;;;;25.42;26.39;101616.19;5050554;28;20045;-64
2021/05/30 10:04:22;;;;;;;0.75;0.50;;;;;;;25.48;25.89;101617.38;5050942;28;20045;-64
2021/05/30 10:06:50;;;;;;;0.70;0.60;;;;;;;25.46;25.58;101614.03;5050434;28;20041;-65
2021/05/30 10:09:17;;;;;;;0.98;0.70;;;;;;;25.54;25.79;101608.66;5049916;28;20407;-71
2021/05/30 10:11:44;;;;;;;1.95;0.50;;;;;;;25.63;25.34;101603.31;5049966;28;20068;-64
2021/05/30 10:14:12;;;;;;;0.82;0.57;;;;;;;25.76;25.20;101598.28;5049761;28;20792;-65
2021/05/30 10:16:39;;;;;;;1.17;0.63;;;;;;;25.93;25.78;101596.44;5049984;28;20056;-64
2021/05/30 10:19:10;;;;;;;0.95;0.50;;;;;;;26.05;26.23;101607.72;5049877;28;20037;-64
2021/05/30 10:21:41;;;;;;;0.70;0.43;;;;;;;26.13;25.61;101598.81;5046197;28;20479;-64
2021/05/30 10:24:10;;;;;;;0.85;0.57;;;;;;;26.17;25.00;101595.63;5049640;28;20048;-65
2021/05/30 10:26:45;;;;;;;1.05;0.65;;;;;;;26.23;25.38;101594.09;5048002;28;20495;-64
2021/05/30 10:29:17;;;;;;;0.68;0.50;;;;;;;26.28;25.25;101590.91;5049923;28;20037;-65
2021/05/30 10:31:46;;;;;;;1.30;0.68;;;;;;;26.11;24.65;101582.84;5045010;28;20052;-60
2021/05/30 10:34:19;;;;;;;1.30;0.60;;;;;;;26.08;24.90;101581.34;5045290;28;20049;-60
2021/05/30 10:36:54;;;;;;;2.85;0.70;;;;;;;26.10;25.15;101577.66;5041297;28;20041;-62
2021/05/30 10:39:30;;;;;;;0.88;0.60;;;;;;;26.11;25.78;101572.09;5038421;28;20056;-60
2021/05/30 10:42:25;;;;;;;0.50;0.40;;;;;;;26.16;25.45;101574.28;5049437;28;20048;-60
2021/05/30 10:45:03;;;;;;;2.05;0.60;;;;;;;26.17;25.00;101565.19;5049428;28;20091;-60
2021/05/30 10:47:42;;;;;;;1.13;0.60;;;;;;;26.18;25.26;101572.25;5041568;28;20048;-60
2021/05/30 10:50:17;;;;;;;1.33;0.70;;;;;;;26.14;24.77;101574.44;5048709;28;20052;-60
2021/05/30 10:52:53;;;;;;;0.90;0.63;;;;;;;26.13;24.63;101570.09;5049647;28;20044;-60
2021/05/30 10:55:27;;;;;;;2.40;0.60;;;;;;;26.20;24.98;101572.94;5048420;28;20136;-61
2021/05/30 10:57:55;;;;;;;0.70;0.50;;;;;;;26.32;25.34;101562.63;5049318;28;20482;-61
2021/05/30 11:00:21;;;;;;;1.58;0.65;;;;;;;26.43;25.66;101559.59;5049381;28;20449;-60
2021/05/30 11:03:11;;;;;;;0.50;0.50;;;;;;;26.50;25.62;101557.03;5049533;28;20041;-60
2021/05/30 11:05:50;;;;;;;0.70;0.60;;;;;;;26.39;24.91;101561.78;5045627;28;20044;-60
2021/05/30 11:08:30;;;;;;;3.22;1.05;;;;;;;26.26;25.31;101560.63;5049671;28;20131;-61
2021/05/30 11:11:18;;;;;;;0.85;0.70;;;;;;;26.33;25.72;101562.47;5034690;28;20046;-61
2021/05/30 11:14:09;;;;;;;1.05;0.70;;;;;;;26.45;26.04;101551.34;5042797;28;20059;-63
2021/05/30 11:16:44;;;;;;;1.85;0.40;;;;;;;26.49;25.99;101547.31;5049194;28;20045;-63
2021/05/30 11:19:14;;;;;;;0.60;0.47;;;;;;;26.24;26.50;101555.44;5039575;28;20057;-63
2021/05/30 11:21:49;;;;;;;1.33;0.70;;;;;;;26.33;25.96;101551.69;5049145;28;20049;-60
2021/05/30 11:24:20;;;;;;;1.63;0.80;;;;;;;26.31;25.44;101553.75;5048079;28;20057;-60
2021/05/30 11:26:56;;;;;;;0.82;0.57;;;;;;;26.03;25.45;101540.63;5049102;28;20538;-60
2021/05/30 11:29:24;;;;;;;0.60;0.60;;;;;;;26.20;25.30;101536.09;5049321;28;20048;-60
2021/05/30 11:31:55;;;;;;;0.60;0.43;;;;;;;26.32;25.56;101536.59;5029786;28;20111;-60
2021/05/30 11:34:34;;;;;;;3.60;0.60;;;;;;;26.40;25.49;101531.16;5029155;28;20053;-60